Time;durP1;ratioP1;P1;durP2;ratioP2;P2;SDS_P1;SDS_P2;PMS_P1;PMS_P2;Temp;Humidity;BMP_temperature;BMP_pressure;BME280_temperature;BME280_humidity;BME280_pressure;Samples;Min_cycle;Max_cycle;Signal;HPM_P1;HPM_P2
2021/03/27 00:02:21;;;;;;;47.07;29.27;;;;;;;5.47;65.25;100226.73;1792912;78;21000;-61
2021/03/27 00:05:09;;;;;;;41.70;26.40;;;;;;;5.44;65.41;100212.12;1808333;78;22333;-61
2021/03/27 00:07:54;;;;;;;43.67;26.53;;;;;;;5.41;65.54;100217.06;1783028;78;21384;-60
2021/03/27 00:10:43;;;;;;;39.53;25.77;;;;;;;5.41;65.60;100214.84;1805168;78;21075;-62
2021/03/27 00:13:38;;;;;;;41.90;24.00;;;;;;;5.40;65.66;100209.95;1788095;78;21217;-60
2021/03/27 00:16:21;;;;;;;36.70;22.90;;;;;;;5.44;65.76;100213.46;1805821;78;21151;-62
2021/03/27 00:19:06;;;;;;;40.67;23.00;;;;;;;5.48;65.79;100207.13;1772042;80;21377;-62
2021/03/27 00:21:42;;;;;;;39.17;22.50;;;;;;;5.50;65.78;100203.53;1777491;78;21179;-61
2021/03/27 00:24:27;;;;;;;39.00;23.17;;;;;;;5.51;65.76;100207.08;1776101;78;21577;-60
2021/03/27 00:27:03;;;;;;;39.27;22.97;;;;;;;5.52;65.75;100208.84;1806929;78;20986;-60
2021/03/27 00:29:41;;;;;;;40.63;25.37;;;;;;;5.51;65.70;100210.63;1811490;78;20988;-61
2021/03/27 00:32:18;;;;;;;40.43;25.23;;;;;;;5.51;65.68;100206.63;1810331;78;21204;-60
2021/03/27 00:34:49;;;;;;;39.70;25.70;;;;;;;5.48;65.69;100210.69;1777666;78;21419;-60
2021/03/27 00:37:20;;;;;;;42.77;25.53;;;;;;;5.45;65.75;100207.18;1810831;78;21091;-60
2021/03/27 00:40:07;;;;;;;38.77;23.77;;;;;;;5.41;65.81;100203.72;1751538;78;21107;-60
2021/03/27 00:42:39;;;;;;;44.77;26.80;;;;;;;5.38;65.86;100202.88;1788426;78;21479;-60
2021/03/27 00:45:20;;;;;;;41.10;25.13;;;;;;;5.30;65.96;100202.59;1785414;78;21614;-60
2021/03/27 00:47:55;;;;;;;43.07;26.57;;;;;;;5.26;66.06;100204.02;1792278;78;21574;-59
2021/03/27 00:50:41;;;;;;;42.83;26.30;;;;;;;5.20;66.14;100210.34;1766705;78;21119;-61
2021/03/27 00:53:40;;;;;;;36.90;24.02;;;;;;;5.16;66.23;100205.98;1768186;79;21111;-60
2021/03/27 00:56:16;;;;;;;38.20;24.43;;;;;;;5.12;66.33;100207.39;1797442;78;21537;-60
2021/03/27 00:58:53;;;;;;;34.33;21.47;;;;;;;5.06;66.40;100205.73;1759420;77;21228;-60
2021/03/27 01:01:21;;;;;;;34.10;20.47;;;;;;;5.05;66.55;100212.42;1791767;78;21537;-61
2021/03/27 01:04:18;;;;;;;31.03;19.63;;;;;;;5.10;66.64;100210.56;1862502;74;26638;-61
2021/03/27 01:07:09;;;;;;;33.47;20.90;;;;;;;5.09;66.69;100214.14;1820543;75;21114;-61
2021/03/27 01:10:20;;;;;;;33.87;22.03;;;;;;;5.12;66.77;100210.94;1831746;75;21399;-61
2021/03/27 01:13:07;;;;;;;36.03;21.40;;;;;;;5.16;66.77;100211.33;1835900;75;21202;-60
2021/03/27 01:15:38;;;;;;;33.73;21.20;;;;;;;5.19;66.74;100213.91;1829059;75;21167;-60
2021/03/27 01:18:22;;;;;;;33.17;22.50;;;;;;;5.23;66.71;100208.08;1803600;75;21182;-61
2021/03/27 01:20:54;;;;;;;35.00;22.50;;;;;;;5.24;66.71;100215.18;1832609;75;21493;-60
2021/03/27 01:23:24;;;;;;;38.60;22.97;;;;;;;5.24;66.65;100212.05;1835299;75;21320;-60
2021/03/27 01:26:00;;;;;;;36.77;23.20;;;;;;;5.22;66.69;100207.20;1834737;75;21194;-59
2021/03/27 01:28:41;;;;;;;39.60;23.73;;;;;;;5.20;66.71;100210.34;1833415;75;21186;-61
2021/03/27 01:31:43;;;;;;;35.60;22.67;;;;;;;5.19;66.68;100209.06;1831250;75;21111;-60
2021/03/27 01:34:30;;;;;;;37.87;23.60;;;;;;;5.18;66.72;100213.52;1839169;75;21643;-60
2021/03/27 01:37:25;;;;;;;36.87;23.90;;;;;;;5.17;66.72;100202.87;1830827;75;21410;-60
2021/03/27 01:40:17;;;;;;;38.17;22.17;;;;;;;5.16;66.80;100207.32;1836165;75;21253;-62
2021/03/27 01:42:56;;;;;;;36.37;21.83;;;;;;;5.13;66.83;100211.38;1820238;75;21175;-61
2021/03/27 01:46:03;;;;;;;42.73;24.17;;;;;;;5.13;66.81;100212.70;1817707;77;21186;-60
2021/03/27 01:49:15;;;;;;;35.13;21.93;;;;;;;5.11;66.82;100212.30;1811571;77;21509;-61
2021/03/27 01:52:13;;;;;;;39.17;21.53;;;;;;;5.11;66.84;100210.97;1821543;77;21392;-62
2021/03/27 01:55:10;;;;;;;32.13;18.47;;;;;;;5.15;66.91;100217.56;1816469;77;21202;-60
2021/03/27 01:58:00;;;;;;;32.87;21.27;;;;;;;5.20;66.91;100213.46;1662766;84;21247;-61
2021/03/27 02:00:36;;;;;;;31.90;20.77;;;;;;;5.24;66.90;100217.39;1711871;82;21840;-61
2021/03/27 02:03:14;;;;;;;38.03;23.20;;;;;;;5.28;66.84;100216.86;1706030;82;21212;-60
2021/03/27 02:05:56;;;;;;;40.43;23.17;;;;;;;5.30;66.72;100214.59;1707734;82;21859;-60
2021/03/27 02:08:47;;;;;;;35.87;22.67;;;;;;;5.32;66.68;100210.12;1707301;82;21251;-62
2021/03/27 02:11:42;;;;;;;38.17;24.13;;;;;;;5.32;66.65;100215.91;1706371;82;21180;-60
2021/03/27 02:14:31;;;;;;;36.93;23.83;;;;;;;5.33;66.59;100223.89;1708056;82;21654;-61
2021/03/27 02:17:15;;;;;;;37.90;23.00;;;;;;;5.33;66.53;100213.67;1705668;82;21204;-61
2021/03/27 02:20:24;;;;;;;39.70;24.37;;;;;;;5.32;66.50;100221.25;1705667;82;21610;-61
2021/03/27 02:23:23;;;;;;;36.10;23.83;;;;;;;5.29;66.52;100223.97;1705922;82;22494;-61
2021/03/27 02:26:25;;;;;;;38.80;25.47;;;;;;;5.27;66.54;100226.66;1709181;82;21281;-62
2021/03/27 02:29:28;;;;;;;39.30;24.53;;;;;;;5.22;66.54;100219.20;1706280;82;21296;-61
2021/03/27 02:32:05;;;;;;;37.87;23.47;;;;;;;5.20;66.62;100225.47;1685903;82;20982;-62
2021/03/27 02:35:08;;;;;;;47.27;25.53;;;;;;;5.15;66.69;100221.57;1709902;82;22112;-60
2021/03/27 02:38:02;;;;;;;34.67;22.90;;;;;;;5.14;66.73;100222.48;1670775;83;21194;-60
2021/03/27 02:40:34;;;;;;;36.63;22.43;;;;;;;5.12;66.83;100225.62;1683957;83;21527;-60
2021/03/27 02:43:19;;;;;;;42.50;24.20;;;;;;;5.13;66.87;100225.16;1652658;84;22331;-59
2021/03/27 02:46:08;;;;;;;31.95;20.88;;;;;;;5.14;66.91;100223.81;1714124;81;21194;-61
2021/03/27 02:49:13;;;;;;;42.70;22.77;;;;;;;5.14;67.01;100225.14;1711198;81;21859;-60
2021/03/27 02:51:47;;;;;;;35.47;22.60;;;;;;;5.17;67.03;100228.22;1706169;81;21262;-61
2021/03/27 02:54:44;;;;;;;34.40;23.43;;;;;;;5.16;67.01;100230.45;1701782;81;21734;-61
2021/03/27 02:57:23;;;;;;;39.47;25.73;;;;;;;5.15;67.02;100226.02;1710074;81;21741;-60
2021/03/27 03:00:05;;;;;;;34.97;24.30;;;;;;;5.13;67.02;100227.84;1708072;81;21265;-61
2021/03/27 03:02:58;;;;;;;40.87;26.13;;;;;;;5.10;67.01;100222.58;1706227;81;23315;-62
2021/03/27 03:05:40;;;;;;;46.60;26.33;;;;;;;5.05;67.13;100223.98;1706373;81;21169;-61
2021/03/27 03:08:25;;;;;;;37.40;26.20;;;;;;;5.05;67.21;100224.43;1706941;81;21554;-61
2021/03/27 03:11:15;;;;;;;37.77;25.83;;;;;;;5.00;67.29;100222.31;1701795;81;21226;-60
2021/03/27 03:14:12;;;;;;;38.47;25.00;;;;;;;4.93;67.40;100226.89;1707705;81;21198;-60
2021/03/27 03:17:08;;;;;;;41.27;26.40;;;;;;;4.90;67.51;100223.81;1708314;81;20962;-59
2021/03/27 03:20:00;;;;;;;44.47;27.40;;;;;;;4.85;67.62;100225.66;1714885;81;21175;-61
2021/03/27 03:22:59;;;;;;;40.17;24.90;;;;;;;4.83;67.73;100234.17;1712473;81;21578;-60
2021/03/27 03:25:30;;;;;;;39.00;21.87;;;;;;;4.82;67.78;100231.52;1704684;81;21478;-61
2021/03/27 03:28:21;;;;;;;36.23;22.47;;;;;;;4.83;67.82;100235.95;1680530;81;21125;-60
2021/03/27 03:31:19;;;;;;;36.37;20.43;;;;;;;4.86;67.88;100227.88;1710438;81;21445;-59
2021/03/27 03:34:27;;;;;;;36.50;22.37;;;;;;;4.94;67.91;100231.28;1868066;75;26774;-61
2021/03/27 03:37:21;;;;;;;40.73;22.53;;;;;;;4.93;67.88;100240.23;1837860;77;21182;-62
2021/03/27 03:40:09;;;;;;;41.00;22.83;;;;;;;4.94;67.87;100241.95;1806178;78;21383;-62
2021/03/27 03:43:04;;;;;;;37.80;24.63;;;;;;;4.93;67.84;100241.08;1773789;78;20985;-61
2021/03/27 03:45:40;;;;;;;42.23;23.80;;;;;;;4.94;67.81;100245.50;1753422;79;21016;-61
2021/03/27 03:48:49;;;;;;;35.80;22.57;;;;;;;4.93;67.77;100238.41;1751559;79;21030;-60
2021/03/27 03:51:40;;;;;;;35.77;23.77;;;;;;;4.94;67.77;100243.29;1761121;79;20964;-61
2021/03/27 03:54:34;;;;;;;35.27;23.13;;;;;;;4.92;67.81;100247.80;1704048;79;22275;-60
2021/03/27 03:57:11;;;;;;;35.57;22.47;;;;;;;4.88;67.84;100244.73;1795862;77;21827;-60
2021/03/27 04:00:15;;;;;;;38.90;23.63;;;;;;;4.86;67.90;100252.77;1768170;77;20969;-61
2021/03/27 04:03:09;;;;;;;37.77;23.73;;;;;;;4.85;67.93;100250.12;1799438;77;21092;-60
2021/03/27 04:05:58;;;;;;;37.37;23.60;;;;;;;4.81;68.00;100247.98;1792261;77;21230;-61
2021/03/27 04:08:41;;;;;;;32.27;20.57;;;;;;;4.79;68.09;100252.45;1767045;77;22240;-61
2021/03/27 04:11:30;;;;;;;30.77;18.70;;;;;;;4.79;68.12;100251.56;1786236;77;21831;-60
2021/03/27 04:13:59;;;;;;;32.30;19.63;;;;;;;4.81;68.16;100247.09;1739758;77;21226;-60
2021/03/27 04:16:26;;;;;;;29.70;17.97;;;;;;;4.83;68.17;100252.84;1763255;77;20961;-60
2021/03/27 04:19:12;;;;;;;31.97;21.27;;;;;;;4.88;68.15;100258.08;1711443;81;21107;-62
2021/03/27 04:22:09;;;;;;;30.57;20.48;;;;;;;4.92;68.19;100252.68;1752824;79;22109;-60
2021/03/27 04:24:57;;;;;;;34.57;21.13;;;;;;;4.97;68.19;100254.37;1751921;79;21285;-61
2021/03/27 04:27:31;;;;;;;33.77;22.13;;;;;;;4.98;68.11;100257.02;1739504;79;21262;-61
2021/03/27 04:30:07;;;;;;;31.77;22.07;;;;;;;5.00;68.04;100253.87;1753036;79;21197;-61
2021/03/27 04:32:40;;;;;;;33.33;23.07;;;;;;;5.01;68.04;100250.30;1754219;79;21582;-62
2021/03/27 04:35:49;;;;;;;35.37;23.97;;;;;;;5.04;67.97;100252.02;1755637;79;21218;-61
2021/03/27 04:38:34;;;;;;;36.93;22.57;;;;;;;5.05;67.92;100256.45;1798440;77;21488;-61
2021/03/27 04:41:09;;;;;;;37.03;23.65;;;;;;;5.06;67.91;100256.42;1796874;77;21107;-61
2021/03/27 04:43:40;;;;;;;38.10;25.97;;;;;;;5.10;67.91;100258.15;1793899;77;21211;-62
2021/03/27 04:46:20;;;;;;;38.20;24.60;;;;;;;5.12;67.90;100256.30;1768052;77;22127;-61
2021/03/27 04:49:28;;;;;;;34.13;22.97;;;;;;;5.16;67.92;100266.03;1790646;77;21407;-59
2021/03/27 04:52:37;;;;;;;36.83;21.00;;;;;;;5.17;67.79;100267.80;1770621;78;21234;-60
2021/03/27 04:55:36;;;;;;;35.93;19.57;;;;;;;5.20;67.78;100268.17;1766748;78;22468;-60
2021/03/27 04:58:39;;;;;;;29.13;18.57;;;;;;;5.23;67.81;100267.67;1661277;84;21214;-61
2021/03/27 05:01:20;;;;;;;29.73;19.30;;;;;;;5.28;67.80;100263.12;1632212;84;21242;-61
2021/03/27 05:04:16;;;;;;;34.03;21.37;;;;;;;5.34;67.71;100268.82;1671830;83;21446;-62
2021/03/27 05:06:50;;;;;;;32.57;19.53;;;;;;;5.41;67.63;100272.25;1674980;83;21655;-61
2021/03/27 05:09:52;;;;;;;32.13;20.32;;;;;;;5.47;67.52;100280.13;1671403;83;21277;-63
2021/03/27 05:12:31;;;;;;;29.67;20.37;;;;;;;5.51;67.42;100277.84;1668152;83;21217;-61
2021/03/27 05:15:14;;;;;;;34.03;21.80;;;;;;;5.53;67.29;100276.88;1672976;83;21212;-62
2021/03/27 05:17:49;;;;;;;30.03;20.67;;;;;;;5.56;67.21;100277.28;1658548;83;22449;-61
2021/03/27 05:20:33;;;;;;;33.43;22.07;;;;;;;5.58;67.09;100278.14;1672521;83;22323;-59
2021/03/27 05:23:21;;;;;;;33.03;22.57;;;;;;;5.59;67.06;100281.23;1649686;83;21217;-61
2021/03/27 05:26:10;;;;;;;34.80;23.13;;;;;;;5.61;66.95;100280.77;1670812;83;21206;-63
2021/03/27 05:29:05;;;;;;;33.93;23.23;;;;;;;5.64;66.89;100281.56;1825338;76;27954;-61
2021/03/27 05:31:56;;;;;;;35.77;22.13;;;;;;;5.61;66.85;100285.62;1790091;77;21190;-62
2021/03/27 05:34:34;;;;;;;32.20;21.87;;;;;;;5.63;66.84;100288.27;1795346;77;21430;-60
2021/03/27 05:37:30;;;;;;;31.17;19.57;;;;;;;5.67;66.80;100281.97;1794585;78;21186;-61
2021/03/27 05:43:47;;;;;;;29.30;18.60;;;;;;;5.80;66.70;100286.59;1710673;81;21187;-60
2021/03/27 05:46:35;;;;;;;28.47;19.40;;;;;;;5.87;66.59;100286.43;1708490;82;21207;-61
2021/03/27 05:49:38;;;;;;;29.10;19.07;;;;;;;5.98;66.44;100286.25;1625039;84;21494;-60
2021/03/27 05:52:37;;;;;;;25.97;18.57;;;;;;;6.08;66.22;100292.70;1655670;84;21256;-60
2021/03/27 05:55:16;;;;;;;27.77;17.40;;;;;;;6.20;65.95;100295.59;1630275;84;21311;-61
2021/03/27 05:58:06;;;;;;;30.27;20.30;;;;;;;6.35;65.67;100303.26;1659884;84;21257;-60
2021/03/27 06:00:57;;;;;;;32.57;20.20;;;;;;;6.44;65.23;100297.70;1672685;82;21183;-61
2021/03/27 06:03:35;;;;;;;29.03;18.57;;;;;;;6.53;64.87;100296.61;1665826;83;22721;-61
2021/03/27 06:06:33;;;;;;;27.07;17.20;;;;;;;6.61;64.53;100296.43;1666054;83;21609;-62
2021/03/27 06:09:47;;;;;;;33.33;19.57;;;;;;;6.70;64.42;100296.22;1668731;83;21238;-60
2021/03/27 06:12:33;;;;;;;26.50;17.93;;;;;;;6.82;64.10;100287.87;1674056;83;21110;-61
2021/03/27 06:15:57;;;;;;;24.77;16.33;;;;;;;6.96;63.60;100294.25;1659459;83;21134;-60
2021/03/27 06:19:08;;;;;;;23.97;16.13;;;;;;;7.04;62.77;100294.47;1677013;83;21863;-61
2021/03/27 06:21:47;;;;;;;24.43;15.07;;;;;;;7.10;62.44;100294.77;1671454;83;21142;-60
2021/03/27 06:24:44;;;;;;;24.63;16.60;;;;;;;7.19;62.19;100297.20;1654663;83;21439;-62
2021/03/27 06:27:45;;;;;;;29.87;18.17;;;;;;;7.31;61.93;100294.68;1671056;83;21439;-61
2021/03/27 06:30:55;;;;;;;24.27;16.27;;;;;;;7.40;61.54;100291.27;1671776;83;21513;-61
2021/03/27 06:33:51;;;;;;;24.67;16.47;;;;;;;7.48;61.14;100296.00;1677136;83;21217;-60
2021/03/27 06:36:49;;;;;;;24.13;16.37;;;;;;;7.57;60.57;100299.73;1671299;83;21142;-62
2021/03/27 06:39:34;;;;;;;21.93;15.27;;;;;;;7.63;59.93;100299.16;1678330;83;21166;-62
2021/03/27 06:42:35;;;;;;;20.83;14.83;;;;;;;7.66;59.78;100299.06;1673306;83;21250;-60
2021/03/27 06:45:33;;;;;;;24.53;16.13;;;;;;;7.69;59.32;100303.00;1667104;83;21203;-61
2021/03/27 06:48:46;;;;;;;22.63;16.50;;;;;;;7.69;59.28;100300.33;1670963;82;21884;-60
2021/03/27 06:51:54;;;;;;;20.43;15.60;;;;;;;7.72;59.14;100310.52;1636417;85;21630;-62
2021/03/27 06:54:49;;;;;;;23.10;16.33;;;;;;;7.74;58.98;100307.80;1637778;85;21206;-59
2021/03/27 06:58:10;;;;;;;20.33;16.30;;;;;;;7.78;58.88;100312.13;1638773;85;21580;-61
2021/03/27 07:00:52;;;;;;;24.30;16.93;;;;;;;7.82;58.84;100310.68;1626790;85;21657;-62
2021/03/27 07:04:16;;;;;;;24.13;17.97;;;;;;;7.84;58.66;100304.79;1640996;85;22260;-61
2021/03/27 07:07:21;;;;;;;24.70;17.07;;;;;;;7.85;58.62;100309.23;1637652;85;21213;-62
2021/03/27 07:10:33;;;;;;;27.93;18.63;;;;;;;7.89;58.90;100303.34;1640357;85;21668;-62
2021/03/27 07:13:38;;;;;;;26.27;19.27;;;;;;;7.95;58.50;100306.71;1637296;85;22897;-60
2021/03/27 07:16:32;;;;;;;26.45;17.55;;;;;;;7.99;58.77;100309.70;1640472;85;21238;-61
2021/03/27 07:19:44;;;;;;;29.55;18.62;;;;;;;8.08;58.87;100309.05;1638287;85;23597;-61
2021/03/27 07:22:33;;;;;;;30.00;18.93;;;;;;;8.16;58.82;100302.54;1639800;85;21160;-62
2021/03/27 07:25:39;;;;;;;31.03;19.97;;;;;;;8.29;58.94;100307.94;1638996;85;21198;-62
2021/03/27 07:28:47;;;;;;;27.80;19.27;;;;;;;8.45;58.67;100308.84;1744671;80;21203;-62
2021/03/27 07:31:20;;;;;;;28.57;19.30;;;;;;;8.64;58.71;100310.03;1744888;80;21204;-60
2021/03/27 07:33:53;;;;;;;;;;;;;;;8.86;58.09;100308.41;1748686;80;21199;-60
2021/03/27 07:37:10;;;;;;;25.50;18.93;;;;;;;9.02;57.50;100310.12;1743282;80;20433;-60
2021/03/27 07:40:04;;;;;;;26.55;16.80;;;;;;;9.11;57.02;100311.16;1711692;82;26902;-62
2021/03/27 07:43:01;;;;;;;25.80;17.80;;;;;;;9.18;56.84;100309.17;1691929;82;21198;-61
2021/03/27 07:46:09;;;;;;;25.80;17.47;;;;;;;9.26;56.58;100305.77;1709116;82;21246;-63
2021/03/27 07:49:11;;;;;;;29.00;19.03;;;;;;;9.33;55.94;100308.64;1702976;82;21230;-63
2021/03/27 07:52:18;;;;;;;25.90;19.07;;;;;;;9.40;55.64;100313.75;1667335;82;21194;-62
2021/03/27 07:55:34;;;;;;;27.73;17.73;;;;;;;9.57;55.47;100300.19;1870393;75;23279;-62
2021/03/27 07:58:42;;;;;;;23.30;15.87;;;;;;;9.64;55.04;100301.72;1842834;77;21555;-61
2021/03/27 08:01:33;;;;;;;27.30;19.03;;;;;;;9.77;54.33;100307.09;1841474;77;21526;-61
2021/03/27 08:04:27;;;;;;;27.60;18.40;;;;;;;9.92;54.61;100302.95;1838505;77;21242;-61
2021/03/27 08:07:17;;;;;;;27.82;18.98;;;;;;;10.03;54.09;100304.32;1842541;77;21511;-61
2021/03/27 08:10:36;;;;;;;28.67;19.80;;;;;;;10.14;53.72;100298.52;1787789;78;20973;-61
2021/03/27 08:13:37;;;;;;;28.17;19.60;;;;;;;10.23;53.47;100299.08;1804173;78;21163;-60
2021/03/27 08:16:30;;;;;;;25.07;18.77;;;;;;;10.35;52.65;100308.51;1782348;78;22062;-62
2021/03/27 08:19:38;;;;;;;25.77;18.10;;;;;;;10.41;52.31;100301.53;1778356;78;21838;-61
2021/03/27 08:22:29;;;;;;;28.13;20.03;;;;;;;10.49;52.16;100299.89;1761335;78;21483;-61
2021/03/27 08:25:30;;;;;;;37.00;24.53;;;;;;;10.55;51.42;100299.17;1784956;79;21198;-62
2021/03/27 08:28:30;;;;;;;36.20;24.93;;;;;;;10.61;51.06;100298.07;1783469;79;21282;-61
2021/03/27 08:31:19;;;;;;;31.87;21.77;;;;;;;10.68;51.09;100294.19;1768486;79;21453;-63
2021/03/27 08:34:27;;;;;;;23.83;16.27;;;;;;;10.83;50.33;100295.38;1784541;79;21527;-60
2021/03/27 08:37:18;;;;;;;20.57;14.50;;;;;;;10.94;49.29;100294.02;1786011;79;21562;-63
2021/03/27 08:40:04;;;;;;;20.67;12.63;;;;;;;11.11;47.82;100297.82;1867297;75;23130;-63
2021/03/27 08:43:18;;;;;;;21.70;14.07;;;;;;;11.13;47.42;100302.69;1854404;75;21151;-62
2021/03/27 08:46:23;;;;;;;21.87;14.43;;;;;;;11.19;47.12;100292.52;1725389;81;22021;-63
2021/03/27 08:49:28;;;;;;;18.30;13.03;;;;;;;11.20;46.22;100294.75;1870950;75;22768;-61
2021/03/27 08:52:21;;;;;;;21.53;14.63;;;;;;;11.13;46.59;100292.78;1844044;77;21369;-62
2021/03/27 08:55:18;;;;;;;20.77;13.77;;;;;;;11.16;46.28;100285.02;1840482;77;21204;-62
2021/03/27 08:58:08;;;;;;;15.63;12.53;;;;;;;11.24;46.13;100293.19;1840010;77;21593;-63
2021/03/27 09:01:18;;;;;;;19.47;13.50;;;;;;;11.33;46.05;100279.80;1844703;77;22105;-64
2021/03/27 09:04:08;;;;;;;15.77;13.60;;;;;;;11.43;45.40;100285.20;1749067;79;21216;-62
2021/03/27 09:07:21;;;;;;;18.90;12.23;;;;;;;11.55;45.21;100284.68;1842045;77;21420;-64
2021/03/27 09:10:14;;;;;;;13.03;10.13;;;;;;;11.66;44.90;100277.44;1842299;77;21201;-62
2021/03/27 09:13:08;;;;;;;15.33;11.07;;;;;;;11.74;41.58;100272.58;1843349;77;20994;-61
2021/03/27 09:16:09;;;;;;;16.57;11.27;;;;;;;11.85;42.61;100272.14;1846340;77;21123;-62
2021/03/27 09:19:14;;;;;;;15.18;11.03;;;;;;;12.06;42.30;100269.36;1846445;77;21090;-62
2021/03/27 09:22:27;;;;;;;14.70;10.88;;;;;;;12.21;41.87;100276.33;1847235;77;21103;-62
2021/03/27 09:25:11;;;;;;;16.48;11.97;;;;;;;12.30;40.70;100269.16;1842960;77;21456;-64
2021/03/27 09:28:07;;;;;;;15.83;12.03;;;;;;;12.39;40.39;100270.07;1790444;78;21123;-63
2021/03/27 09:31:16;;;;;;;14.87;11.97;;;;;;;12.40;40.36;100260.55;1805386;78;21098;-63
2021/03/27 09:33:59;;;;;;;22.95;13.70;;;;;;;12.46;40.68;100263.42;1806737;78;20988;-62
2021/03/27 09:36:34;;;;;;;13.90;11.60;;;;;;;12.44;39.94;100265.31;1800293;78;21641;-61
2021/03/27 09:39:24;;;;;;;15.53;11.88;;;;;;;12.36;40.60;100270.20;1803272;78;21394;-61
2021/03/27 09:42:44;;;;;;;13.30;9.20;;;;;;;12.30;40.54;100270.03;1804066;78;21136;-61
2021/03/27 09:45:29;;;;;;;12.93;9.80;;;;;;;12.24;40.01;100266.28;1807350;77;21107;-62
2021/03/27 09:48:03;;;;;;;;;;;;;;;12.17;38.48;100263.44;1807042;77;21123;-60
2021/03/27 09:51:04;;;;;;;12.37;9.93;;;;;;;12.15;37.86;100263.13;1810439;77;20249;-62
2021/03/27 09:55:55;;;;;;;14.53;9.50;;;;;;;12.07;37.87;100263.48;1757034;78;22626;-60
2021/03/27 09:58:59;;;;;;;12.37;10.23;;;;;;;12.05;37.81;100268.08;1727773;82;21133;-62
2021/03/27 10:01:51;;;;;;;12.65;8.63;;;;;;;12.07;37.53;100267.53;1724924;82;22817;-62
2021/03/27 10:04:45;;;;;;;13.20;10.10;;;;;;;11.99;36.88;100270.55;1722941;82;21072;-60
2021/03/27 10:07:44;;;;;;;13.20;10.33;;;;;;;11.94;37.36;100266.33;1725034;82;21538;-61
2021/03/27 10:10:19;;;;;;;13.58;8.38;;;;;;;11.97;38.17;100265.73;1729234;82;21332;-62
2021/03/27 10:12:58;;;;;;;11.90;9.10;;;;;;;12.13;38.15;100261.84;1723186;80;21594;-63
2021/03/27 10:15:36;;;;;;;15.55;10.55;;;;;;;12.30;37.64;100261.94;1725755;82;21637;-61
2021/03/27 10:18:30;;;;;;;14.80;9.95;;;;;;;12.47;37.69;100247.63;1721440;82;21195;-61
2021/03/27 10:21:27;;;;;;;11.93;9.40;;;;;;;12.59;37.26;100255.13;1719375;82;22454;-61
2021/03/27 10:24:26;;;;;;;16.07;10.00;;;;;;;12.73;37.81;100259.87;1724312;80;21234;-61
2021/03/27 10:27:22;;;;;;;11.43;10.15;;;;;;;12.85;37.16;100256.07;1726007;82;21239;-62
2021/03/27 10:30:06;;;;;;;11.97;9.10;;;;;;;12.94;37.49;100257.44;1723874;80;21448;-60
2021/03/27 10:32:59;;;;;;;13.28;8.70;;;;;;;13.08;36.89;100252.24;1700539;82;21126;-62
2021/03/27 10:35:43;;;;;;;12.20;8.90;;;;;;;13.18;35.51;100252.69;1723482;80;21226;-61
2021/03/27 10:38:32;;;;;;;11.68;9.15;;;;;;;13.14;35.95;100256.01;1725501;80;21123;-60
2021/03/27 10:41:45;;;;;;;10.93;8.73;;;;;;;13.17;36.12;100256.34;1685113;82;21657;-62
2021/03/27 10:44:34;;;;;;;8.98;8.18;;;;;;;13.22;35.07;100247.50;1679342;82;21222;-60
2021/03/27 10:47:18;;;;;;;10.95;8.23;;;;;;;13.33;35.02;100249.19;1683324;82;21195;-60
2021/03/27 10:50:19;;;;;;;10.38;8.58;;;;;;;13.38;35.38;100255.22;1700072;82;21493;-62
2021/03/27 10:53:20;;;;;;;12.00;7.80;;;;;;;13.48;35.56;100242.98;1701203;82;21218;-59
2021/03/27 10:56:34;;;;;;;10.70;9.45;;;;;;;13.54;35.11;100237.71;1700354;82;21203;-63
2021/03/27 10:59:22;;;;;;;10.18;8.65;;;;;;;13.63;35.54;100234.05;1702478;82;21875;-62
2021/03/27 11:02:28;;;;;;;11.12;7.92;;;;;;;13.63;34.89;100237.23;1704093;82;21270;-60
2021/03/27 11:05:30;;;;;;;13.78;10.50;;;;;;;13.48;34.61;100245.69;1702659;82;21222;-61
2021/03/27 11:08:32;;;;;;;15.30;9.85;;;;;;;13.25;35.53;100240.60;1637059;86;21597;-61
2021/03/27 11:11:41;;;;;;;14.15;10.20;;;;;;;13.17;35.73;100242.34;1596439;87;21235;-61
2021/03/27 11:14:52;;;;;;;12.37;8.53;;;;;;;13.14;35.77;100245.67;1606178;87;22335;-62
2021/03/27 11:17:50;;;;;;;8.55;6.83;;;;;;;13.17;35.87;100234.23;1606876;87;21514;-62
2021/03/27 11:20:51;;;;;;;10.48;8.70;;;;;;;13.29;35.74;100236.77;1593340;88;21603;-62
2021/03/27 11:23:49;;;;;;;11.43;8.98;;;;;;;13.37;35.30;100228.26;1588890;87;21235;-61
2021/03/27 11:26:37;;;;;;;7.10;6.22;;;;;;;13.42;35.05;100232.49;1603785;87;21258;-63
2021/03/27 11:29:28;;;;;;;10.53;7.78;;;;;;;13.47;35.21;100225.00;1605008;87;21861;-61
2021/03/27 11:32:13;;;;;;;9.18;7.12;;;;;;;13.59;35.16;100232.48;1602909;86;21172;-59
2021/03/27 11:34:53;;;;;;;11.80;10.25;;;;;;;13.67;34.96;100227.13;1605244;87;21232;-61
2021/03/27 11:37:35;;;;;;;11.03;8.25;;;;;;;13.71;34.28;100224.64;1605252;87;21222;-62
2021/03/27 11:40:27;;;;;;;10.72;8.15;;;;;;;13.69;34.67;100219.82;1583985;89;21264;-61
2021/03/27 11:43:22;;;;;;;9.38;7.55;;;;;;;13.74;34.87;100222.66;1599083;87;21406;-61
2021/03/27 11:45:59;;;;;;;11.12;7.22;;;;;;;13.80;34.46;100220.09;1578108;88;21240;-61
2021/03/27 11:48:36;;;;;;;11.08;7.60;;;;;;;13.84;34.83;100220.34;1602718;86;21199;-60
2021/03/27 11:51:15;;;;;;;9.13;7.45;;;;;;;13.91;34.32;100223.10;1595982;88;21239;-61
2021/03/27 11:54:12;;;;;;;8.43;7.60;;;;;;;13.93;33.93;100218.02;1601650;86;21510;-61
2021/03/27 11:57:23;;;;;;;10.03;9.03;;;;;;;13.91;34.02;100218.56;1577169;88;21631;-62
2021/03/27 12:03:21;;;;;;;11.53;8.85;;;;;;;13.53;34.33;100226.02;1599417;87;21635;-61
2021/03/27 12:05:55;;;;;;;12.75;10.13;;;;;;;13.39;34.40;100220.47;1595277;88;22521;-63
2021/03/27 12:08:29;;;;;;;9.83;8.55;;;;;;;13.31;34.86;100222.70;1603230;87;21022;-62
2021/03/27 12:11:34;;;;;;;13.83;9.53;;;;;;;13.29;35.00;100223.73;1594444;88;21724;-61
2021/03/27 12:14:15;;;;;;;10.95;9.23;;;;;;;13.27;35.19;100223.80;1575082;87;21677;-61
2021/03/27 12:17:05;;;;;;;12.23;8.13;;;;;;;13.32;34.92;100226.28;1596347;87;21053;-61
2021/03/27 12:20:19;;;;;;;10.93;9.58;;;;;;;13.39;34.26;100221.83;1595432;87;21159;-60
2021/03/27 12:23:05;;;;;;;9.68;7.50;;;;;;;13.40;33.40;100215.47;1603406;87;21595;-62
2021/03/27 12:25:55;;;;;;;11.22;8.00;;;;;;;13.38;33.18;100219.20;1563062;87;21240;-61
2021/03/27 12:29:03;;;;;;;8.13;7.33;;;;;;;13.43;33.46;100207.20;1571446;89;21163;-63
2021/03/27 12:31:53;;;;;;;9.30;6.85;;;;;;;13.53;33.48;100207.56;1605665;87;21199;-63
2021/03/27 12:34:37;;;;;;;11.25;7.30;;;;;;;13.62;33.91;100203.89;1589999;88;21219;-62
2021/03/27 12:37:15;;;;;;;8.33;7.50;;;;;;;13.71;33.58;100210.64;1603495;86;21251;-62
2021/03/27 12:39:59;;;;;;;12.15;8.90;;;;;;;13.76;33.42;100209.94;1569115;88;21239;-61
2021/03/27 12:42:46;;;;;;;;;;;;;;;13.78;32.98;100205.80;1604872;86;21509;-63
2021/03/27 12:45:38;;;;;;;17.77;10.05;;;;;;;13.68;33.13;100209.47;1576122;89;20810;-62
2021/03/27 12:48:27;;;;;;;10.23;7.37;;;;;;;13.58;33.25;100206.86;1603015;87;21239;-62
2021/03/27 12:51:22;;;;;;;13.00;8.13;;;;;;;13.47;33.23;100209.25;1604700;86;21238;-61
2021/03/27 12:54:05;;;;;;;15.20;9.23;;;;;;;13.34;33.66;100215.80;1593779;88;21459;-60
2021/03/27 12:56:52;;;;;;;11.78;8.40;;;;;;;13.22;33.59;100212.36;1600209;87;21291;-61
2021/03/27 13:00:14;;;;;;;10.95;8.68;;;;;;;13.15;33.74;100218.57;1602091;87;21153;-60
2021/03/27 13:02:56;;;;;;;13.53;9.78;;;;;;;13.08;34.00;100217.11;1596020;87;21271;-60
2021/03/27 13:06:07;;;;;;;14.83;12.15;;;;;;;13.08;34.12;100209.00;1600262;87;21247;-60
2021/03/27 13:08:39;;;;;;;16.62;10.80;;;;;;;13.13;34.17;100211.45;1551602;90;22616;-61
2021/03/27 13:11:27;;;;;;;11.48;10.30;;;;;;;13.23;33.73;100208.70;1561362;90;21359;-62
2021/03/27 13:14:41;;;;;;;9.33;8.17;;;;;;;13.36;34.09;100195.41;1866937;75;22735;-63
2021/03/27 13:17:17;;;;;;;8.83;7.45;;;;;;;13.42;34.12;100204.58;1848629;77;21172;-61
2021/03/27 13:19:47;;;;;;;7.85;6.60;;;;;;;13.54;33.43;100203.43;1846639;77;22268;-60